sensor_id;sensor_type;location;lat;lon;timestamp;P1;durP1;ratioP1;P2;durP2;ratioP2
9007;SDS011;62813;51.424;6.762;2023-02-28T00:01:26;7.07;;;4.37;;
9007;SDS011;62813;51.424;6.762;2023-02-28T00:03:53;8.13;;;3.53;;
9007;SDS011;62813;51.424;6.762;2023-02-28T00:06:20;7.33;;;4.40;;
9007;SDS011;62813;51.424;6.762;2023-02-28T00:08:47;6.73;;;4.50;;
9007;SDS011;62813;51.424;6.762;2023-02-28T00:11:14;7.63;;;4.03;;
9007;SDS011;62813;51.424;6.762;2023-02-28T00:13:43;6.80;;;4.10;;
9007;SDS011;62813;51.424;6.762;2023-02-28T00:16:15;4.80;;;3.70;;
9007;SDS011;62813;51.424;6.762;2023-02-28T00:18:47;6.93;;;3.97;;
9007;SDS011;62813;51.424;6.762;2023-02-28T00:21:14;7.47;;;4.00;;
9007;SDS011;62813;51.424;6.762;2023-02-28T00:23:41;8.53;;;4.23;;
9007;SDS011;62813;51.424;6.762;2023-02-28T00:26:08;8.97;;;4.30;;
9007;SDS011;62813;51.424;6.762;2023-02-28T00:28:34;8.57;;;4.20;;
9007;SDS011;62813;51.424;6.762;2023-02-28T00:31:01;8.37;;;4.03;;
9007;SDS011;62813;51.424;6.762;2023-02-28T00:33:29;8.30;;;4.67;;
9007;SDS011;62813;51.424;6.762;2023-02-28T00:36:03;8.37;;;3.97;;
9007;SDS011;62813;51.424;6.762;2023-02-28T00:38:33;8.50;;;4.23;;
9007;SDS011;62813;51.424;6.762;2023-02-28T00:41:01;10.80;;;4.33;;
9007;SDS011;62813;51.424;6.762;2023-02-28T00:43:32;5.63;;;4.23;;
9007;SDS011;62813;51.424;6.762;2023-02-28T00:46:00;6.27;;;4.23;;
9007;SDS011;62813;51.424;6.762;2023-02-28T00:48:27;7.43;;;3.97;;
9007;SDS011;62813;51.424;6.762;2023-02-28T00:50:54;6.93;;;4.10;;
9007;SDS011;62813;51.424;6.762;2023-02-28T00:53:20;8.87;;;4.23;;
9007;SDS011;62813;51.424;6.762;2023-02-28T00:55:48;6.97;;;4.23;;
9007;SDS011;62813;51.424;6.762;2023-02-28T00:58:16;7.87;;;4.30;;
9007;SDS011;62813;51.424;6.762;2023-02-28T01:00:42;5.03;;;3.93;;
9007;SDS011;62813;51.424;6.762;2023-02-28T01:03:09;7.30;;;4.27;;
9007;SDS011;62813;51.424;6.762;2023-02-28T01:05:35;7.47;;;4.23;;
9007;SDS011;62813;51.424;6.762;2023-02-28T01:08:02;8.10;;;4.87;;
9007;SDS011;62813;51.424;6.762;2023-02-28T01:10:31;10.40;;;4.40;;
9007;SDS011;62813;51.424;6.762;2023-02-28T01:12:58;10.43;;;4.50;;
9007;SDS011;62813;51.424;6.762;2023-02-28T01:15:24;5.50;;;3.57;;
9007;SDS011;62813;51.424;6.762;2023-02-28T01:17:51;4.97;;;4.10;;
9007;SDS011;62813;51.424;6.762;2023-02-28T01:20:18;5.57;;;4.20;;
9007;SDS011;62813;51.424;6.762;2023-02-28T01:22:44;6.07;;;3.93;;
9007;SDS011;62813;51.424;6.762;2023-02-28T01:25:12;7.27;;;3.40;;
9007;SDS011;62813;51.424;6.762;2023-02-28T01:27:39;7.63;;;4.40;;
9007;SDS011;62813;51.424;6.762;2023-02-28T01:30:06;6.13;;;3.93;;
9007;SDS011;62813;51.424;6.762;2023-02-28T01:32:35;6.47;;;4.00;;
9007;SDS011;62813;51.424;6.762;2023-02-28T01:35:02;7.00;;;4.10;;
9007;SDS011;62813;51.424;6.762;2023-02-28T01:37:29;4.73;;;3.23;;
9007;SDS011;62813;51.424;6.762;2023-02-28T01:39:56;4.47;;;3.53;;
9007;SDS011;62813;51.424;6.762;2023-02-28T01:42:23;7.90;;;3.50;;
9007;SDS011;62813;51.424;6.762;2023-02-28T01:45:04;7.40;;;3.47;;
9007;SDS011;62813;51.424;6.762;2023-02-28T01:47:43;5.63;;;3.17;;
9007;SDS011;62813;51.424;6.762;2023-02-28T01:50:21;7.17;;;3.13;;
9007;SDS011;62813;51.424;6.762;2023-02-28T01:52:51;4.17;;;2.70;;
9007;SDS011;62813;51.424;6.762;2023-02-28T01:55:19;4.87;;;3.13;;
9007;SDS011;62813;51.424;6.762;2023-02-28T01:57:52;4.43;;;2.90;;
9007;SDS011;62813;51.424;6.762;2023-02-28T02:00:23;5.27;;;3.20;;
9007;SDS011;62813;51.424;6.762;2023-02-28T02:02:55;4.33;;;3.10;;
9007;SDS011;62813;51.424;6.762;2023-02-28T02:05:29;6.10;;;3.00;;
9007;SDS011;62813;51.424;6.762;2023-02-28T02:08:03;5.00;;;2.90;;
9007;SDS011;62813;51.424;6.762;2023-02-28T02:16:34;4.27;;;3.13;;
9007;SDS011;62813;51.424;6.762;2023-02-28T02:21:52;6.20;;;3.60;;
9007;SDS011;62813;51.424;6.762;2023-02-28T02:35:35;4.63;;;2.97;;
9007;SDS011;62813;51.424;6.762;2023-02-28T02:38:18;4.30;;;2.63;;
9007;SDS011;62813;51.424;6.762;2023-02-28T02:41:11;5.10;;;2.60;;
9007;SDS011;62813;51.424;6.762;2023-02-28T02:43:46;5.10;;;3.10;;
9007;SDS011;62813;51.424;6.762;2023-02-28T02:46:23;4.50;;;2.47;;
9007;SDS011;62813;51.424;6.762;2023-02-28T02:48:58;4.33;;;2.50;;
9007;SDS011;62813;51.424;6.762;2023-02-28T02:51:30;5.83;;;3.00;;
9007;SDS011;62813;51.424;6.762;2023-02-28T02:54:04;7.90;;;2.73;;
9007;SDS011;62813;51.424;6.762;2023-02-28T02:56:35;3.23;;;2.63;;
9007;SDS011;62813;51.424;6.762;2023-02-28T02:59:07;3.90;;;2.90;;
9007;SDS011;62813;51.424;6.762;2023-02-28T03:01:36;4.50;;;2.80;;
9007;SDS011;62813;51.424;6.762;2023-02-28T03:04:05;4.93;;;3.10;;
9007;SDS011;62813;51.424;6.762;2023-02-28T03:06:37;3.83;;;2.63;;
9007;SDS011;62813;51.424;6.762;2023-02-28T03:09:03;4.67;;;3.00;;
9007;SDS011;62813;51.424;6.762;2023-02-28T03:11:30;5.17;;;2.73;;
9007;SDS011;62813;51.424;6.762;2023-02-28T03:14:08;6.10;;;2.40;;
9007;SDS011;62813;51.424;6.762;2023-02-28T03:17:04;5.10;;;2.97;;
9007;SDS011;62813;51.424;6.762;2023-02-28T03:28:07;4.40;;;2.50;;
9007;SDS011;62813;51.424;6.762;2023-02-28T03:33:15;4.27;;;2.97;;
9007;SDS011;62813;51.424;6.762;2023-02-28T03:35:56;6.30;;;3.60;;
9007;SDS011;62813;51.424;6.762;2023-02-28T03:38:31;6.13;;;3.33;;
9007;SDS011;62813;51.424;6.762;2023-02-28T03:41:51;6.23;;;3.23;;
9007;SDS011;62813;51.424;6.762;2023-02-28T03:44:16;6.43;;;3.20;;
9007;SDS011;62813;51.424;6.762;2023-02-28T03:46:53;7.17;;;3.47;;
9007;SDS011;62813;51.424;6.762;2023-02-28T03:49:28;8.00;;;3.53;;
9007;SDS011;62813;51.424;6.762;2023-02-28T03:51:59;5.63;;;3.27;;
9007;SDS011;62813;51.424;6.762;2023-02-28T03:54:33;8.13;;;3.40;;
9007;SDS011;62813;51.424;6.762;2023-02-28T03:57:07;6.43;;;3.97;;
9007;SDS011;62813;51.424;6.762;2023-02-28T03:59:42;6.93;;;2.90;;
9007;SDS011;62813;51.424;6.762;2023-02-28T04:02:12;7.73;;;3.40;;
9007;SDS011;62813;51.424;6.762;2023-02-28T04:04:38;9.97;;;3.17;;
9007;SDS011;62813;51.424;6.762;2023-02-28T04:07:11;5.47;;;3.30;;
9007;SDS011;62813;51.424;6.762;2023-02-28T04:09:38;6.53;;;3.40;;
9007;SDS011;62813;51.424;6.762;2023-02-28T04:12:07;4.17;;;3.23;;
9007;SDS011;62813;51.424;6.762;2023-02-28T04:14:35;6.10;;;3.27;;
9007;SDS011;62813;51.424;6.762;2023-02-28T04:17:01;7.70;;;3.27;;
9007;SDS011;62813;51.424;6.762;2023-02-28T04:19:28;7.23;;;3.60;;
9007;SDS011;62813;51.424;6.762;2023-02-28T04:21:54;5.10;;;2.83;;
9007;SDS011;62813;51.424;6.762;2023-02-28T04:24:22;8.20;;;3.50;;
9007;SDS011;62813;51.424;6.762;2023-02-28T04:26:51;6.13;;;3.53;;
9007;SDS011;62813;51.424;6.762;2023-02-28T04:29:30;7.33;;;3.30;;
9007;SDS011;62813;51.424;6.762;2023-02-28T04:32:01;6.13;;;3.20;;
9007;SDS011;62813;51.424;6.762;2023-02-28T04:34:29;5.37;;;3.33;;
9007;SDS011;62813;51.424;6.762;2023-02-28T04:36:57;3.87;;;2.97;;
9007;SDS011;62813;51.424;6.762;2023-02-28T04:39:39;8.10;;;3.20;;
9007;SDS011;62813;51.424;6.762;2023-02-28T04:42:06;4.57;;;3.03;;
9007;SDS011;62813;51.424;6.762;2023-02-28T04:44:33;6.43;;;3.27;;
9007;SDS011;62813;51.424;6.762;2023-02-28T04:47:00;5.90;;;3.13;;
9007;SDS011;62813;51.424;6.762;2023-02-28T04:49:26;4.53;;;3.00;;
9007;SDS011;62813;51.424;6.762;2023-02-28T04:51:53;6.33;;;2.73;;
9007;SDS011;62813;51.424;6.762;2023-02-28T04:54:20;6.53;;;3.07;;
9007;SDS011;62813;51.424;6.762;2023-02-28T04:56:46;4.20;;;3.07;;
9007;SDS011;62813;51.424;6.762;2023-02-28T04:59:16;5.60;;;3.43;;
9007;SDS011;62813;51.424;6.762;2023-02-28T05:01:46;6.87;;;3.43;;
9007;SDS011;62813;51.424;6.762;2023-02-28T05:04:14;4.37;;;3.00;;
9007;SDS011;62813;51.424;6.762;2023-02-28T05:06:41;6.73;;;3.30;;
9007;SDS011;62813;51.424;6.762;2023-02-28T05:09:08;6.23;;;2.37;;
9007;SDS011;62813;51.424;6.762;2023-02-28T05:11:37;3.27;;;2.67;;
9007;SDS011;62813;51.424;6.762;2023-02-28T05:14:06;6.37;;;3.07;;
9007;SDS011;62813;51.424;6.762;2023-02-28T05:16:37;9.93;;;3.00;;
9007;SDS011;62813;51.424;6.762;2023-02-28T05:19:04;13.80;;;3.00;;
9007;SDS011;62813;51.424;6.762;2023-02-28T05:21:32;5.57;;;2.60;;
9007;SDS011;62813;51.424;6.762;2023-02-28T05:24:14;3.60;;;2.70;;
9007;SDS011;62813;51.424;6.762;2023-02-28T05:26:42;4.73;;;2.80;;
9007;SDS011;62813;51.424;6.762;2023-02-28T05:29:09;5.87;;;2.47;;
9007;SDS011;62813;51.424;6.762;2023-02-28T05:31:37;3.57;;;3.17;;
9007;SDS011;62813;51.424;6.762;2023-02-28T05:34:04;5.70;;;2.97;;
9007;SDS011;62813;51.424;6.762;2023-02-28T05:36:31;4.63;;;2.83;;
9007;SDS011;62813;51.424;6.762;2023-02-28T05:38:58;4.77;;;2.30;;
9007;SDS011;62813;51.424;6.762;2023-02-28T05:41:25;4.53;;;3.00;;
9007;SDS011;62813;51.424;6.762;2023-02-28T05:43:52;3.33;;;2.60;;
9007;SDS011;62813;51.424;6.762;2023-02-28T05:46:19;6.00;;;2.93;;
9007;SDS011;62813;51.424;6.762;2023-02-28T05:48:46;6.00;;;2.80;;
9007;SDS011;62813;51.424;6.762;2023-02-28T05:51:14;6.50;;;3.00;;
9007;SDS011;62813;51.424;6.762;2023-02-28T05:53:41;5.10;;;2.63;;
9007;SDS011;62813;51.424;6.762;2023-02-28T05:56:07;6.20;;;2.57;;
9007;SDS011;62813;51.424;6.762;2023-02-28T05:58:34;7.50;;;2.73;;
9007;SDS011;62813;51.424;6.762;2023-02-28T06:01:18;3.90;;;2.40;;
9007;SDS011;62813;51.424;6.762;2023-02-28T06:03:58;6.63;;;2.57;;
9007;SDS011;62813;51.424;6.762;2023-02-28T06:06:27;5.53;;;2.60;;
9007;SDS011;62813;51.424;6.762;2023-02-28T06:08:54;6.20;;;3.00;;
9007;SDS011;62813;51.424;6.762;2023-02-28T06:11:21;4.63;;;2.70;;
9007;SDS011;62813;51.424;6.762;2023-02-28T06:13:56;4.37;;;2.93;;
9007;SDS011;62813;51.424;6.762;2023-02-28T06:16:24;6.17;;;2.63;;
9007;SDS011;62813;51.424;6.762;2023-02-28T06:18:50;5.40;;;2.80;;
9007;SDS011;62813;51.424;6.762;2023-02-28T06:21:18;4.07;;;2.43;;
9007;SDS011;62813;51.424;6.762;2023-02-28T06:23:45;5.13;;;2.43;;
9007;SDS011;62813;51.424;6.762;2023-02-28T06:26:12;4.03;;;2.57;;
9007;SDS011;62813;51.424;6.762;2023-02-28T06:28:39;5.13;;;2.50;;
9007;SDS011;62813;51.424;6.762;2023-02-28T06:31:12;4.27;;;2.53;;
9007;SDS011;62813;51.424;6.762;2023-02-28T06:33:41;6.87;;;2.90;;
9007;SDS011;62813;51.424;6.762;2023-02-28T06:36:09;4.80;;;2.50;;
9007;SDS011;62813;51.424;6.762;2023-02-28T06:38:37;6.90;;;3.37;;
9007;SDS011;62813;51.424;6.762;2023-02-28T06:41:04;4.20;;;2.93;;
9007;SDS011;62813;51.424;6.762;2023-02-28T06:43:33;4.50;;;2.67;;
9007;SDS011;62813;51.424;6.762;2023-02-28T06:46:02;3.23;;;2.40;;
9007;SDS011;62813;51.424;6.762;2023-02-28T06:48:30;6.13;;;2.60;;
9007;SDS011;62813;51.424;6.762;2023-02-28T06:51:03;5.40;;;2.70;;
9007;SDS011;62813;51.424;6.762;2023-02-28T06:53:31;7.23;;;2.93;;
9007;SDS011;62813;51.424;6.762;2023-02-28T06:55:58;3.90;;;2.60;;
9007;SDS011;62813;51.424;6.762;2023-02-28T06:58:25;5.53;;;2.97;;
9007;SDS011;62813;51.424;6.762;2023-02-28T07:00:52;4.90;;;2.70;;
9007;SDS011;62813;51.424;6.762;2023-02-28T07:03:19;5.83;;;2.63;;
9007;SDS011;62813;51.424;6.762;2023-02-28T07:05:45;7.00;;;2.83;;
9007;SDS011;62813;51.424;6.762;2023-02-28T07:08:12;6.13;;;3.27;;
9007;SDS011;62813;51.424;6.762;2023-02-28T07:10:39;5.17;;;2.50;;
9007;SDS011;62813;51.424;6.762;2023-02-28T07:13:07;7.60;;;3.00;;
9007;SDS011;62813;51.424;6.762;2023-02-28T07:15:35;10.07;;;3.00;;
9007;SDS011;62813;51.424;6.762;2023-02-28T07:18:06;4.27;;;2.60;;
9007;SDS011;62813;51.424;6.762;2023-02-28T07:20:33;7.07;;;3.00;;
9007;SDS011;62813;51.424;6.762;2023-02-28T07:23:00;7.80;;;2.83;;
9007;SDS011;62813;51.424;6.762;2023-02-28T07:25:27;9.63;;;3.07;;
9007;SDS011;62813;51.424;6.762;2023-02-28T07:27:55;6.83;;;2.80;;
9007;SDS011;62813;51.424;6.762;2023-02-28T07:30:22;8.20;;;3.00;;
9007;SDS011;62813;51.424;6.762;2023-02-28T07:32:49;5.23;;;2.97;;
9007;SDS011;62813;51.424;6.762;2023-02-28T07:35:15;6.20;;;3.07;;
9007;SDS011;62813;51.424;6.762;2023-02-28T07:37:42;7.47;;;3.03;;
9007;SDS011;62813;51.424;6.762;2023-02-28T07:40:09;6.30;;;2.67;;
9007;SDS011;62813;51.424;6.762;2023-02-28T07:42:41;4.97;;;2.57;;
9007;SDS011;62813;51.424;6.762;2023-02-28T07:45:08;7.73;;;2.93;;
9007;SDS011;62813;51.424;6.762;2023-02-28T07:47:38;6.13;;;3.37;;
9007;SDS011;62813;51.424;6.762;2023-02-28T07:50:06;5.13;;;2.30;;
9007;SDS011;62813;51.424;6.762;2023-02-28T07:52:35;8.73;;;3.10;;
9007;SDS011;62813;51.424;6.762;2023-02-28T07:55:03;4.97;;;2.77;;
9007;SDS011;62813;51.424;6.762;2023-02-28T07:57:31;4.77;;;2.23;;
9007;SDS011;62813;51.424;6.762;2023-02-28T08:00:04;5.63;;;2.33;;
9007;SDS011;62813;51.424;6.762;2023-02-28T08:02:32;3.90;;;2.17;;
9007;SDS011;62813;51.424;6.762;2023-02-28T08:04:59;4.53;;;2.37;;
9007;SDS011;62813;51.424;6.762;2023-02-28T08:07:26;7.63;;;2.50;;
9007;SDS011;62813;51.424;6.762;2023-02-28T08:09:53;6.33;;;2.30;;
9007;SDS011;62813;51.424;6.762;2023-02-28T08:12:19;4.17;;;2.10;;
9007;SDS011;62813;51.424;6.762;2023-02-28T08:14:46;5.63;;;2.73;;
9007;SDS011;62813;51.424;6.762;2023-02-28T08:17:12;4.37;;;2.40;;
9007;SDS011;62813;51.424;6.762;2023-02-28T08:19:39;9.00;;;2.57;;
9007;SDS011;62813;51.424;6.762;2023-02-28T08:22:06;7.47;;;2.17;;
9007;SDS011;62813;51.424;6.762;2023-02-28T08:24:32;3.53;;;2.00;;
9007;SDS011;62813;51.424;6.762;2023-02-28T08:26:59;3.77;;;2.53;;
9007;SDS011;62813;51.424;6.762;2023-02-28T08:29:26;10.03;;;3.00;;
9007;SDS011;62813;51.424;6.762;2023-02-28T08:31:52;7.90;;;2.97;;
9007;SDS011;62813;51.424;6.762;2023-02-28T08:34:19;3.73;;;2.43;;
9007;SDS011;62813;51.424;6.762;2023-02-28T08:36:45;5.40;;;2.40;;
9007;SDS011;62813;51.424;6.762;2023-02-28T08:39:12;6.87;;;2.57;;
9007;SDS011;62813;51.424;6.762;2023-02-28T08:41:39;8.83;;;2.80;;
9007;SDS011;62813;51.424;6.762;2023-02-28T08:44:05;4.03;;;2.30;;
9007;SDS011;62813;51.424;6.762;2023-02-28T08:46:32;4.57;;;2.07;;
9007;SDS011;62813;51.424;6.762;2023-02-28T08:48:59;5.70;;;2.67;;
9007;SDS011;62813;51.424;6.762;2023-02-28T08:51:27;7.00;;;2.27;;
9007;SDS011;62813;51.424;6.762;2023-02-28T08:53:57;6.13;;;2.47;;
9007;SDS011;62813;51.424;6.762;2023-02-28T08:56:28;7.90;;;2.60;;
9007;SDS011;62813;51.424;6.762;2023-02-28T08:58:55;5.23;;;2.33;;
9007;SDS011;62813;51.424;6.762;2023-02-28T09:01:26;6.07;;;2.77;;
9007;SDS011;62813;51.424;6.762;2023-02-28T09:03:55;7.70;;;2.20;;
9007;SDS011;62813;51.424;6.762;2023-02-28T09:06:42;2.90;;;2.37;;
9007;SDS011;62813;51.424;6.762;2023-02-28T09:09:10;4.27;;;2.37;;
9007;SDS011;62813;51.424;6.762;2023-02-28T09:11:37;4.97;;;2.43;;
9007;SDS011;62813;51.424;6.762;2023-02-28T09:14:03;4.20;;;2.10;;
9007;SDS011;62813;51.424;6.762;2023-02-28T09:16:31;4.73;;;2.43;;
9007;SDS011;62813;51.424;6.762;2023-02-28T09:18:59;3.17;;;2.10;;
9007;SDS011;62813;51.424;6.762;2023-02-28T09:21:26;2.73;;;1.93;;
9007;SDS011;62813;51.424;6.762;2023-02-28T09:23:53;5.93;;;2.13;;
9007;SDS011;62813;51.424;6.762;2023-02-28T09:26:21;4.53;;;2.10;;
9007;SDS011;62813;51.424;6.762;2023-02-28T09:28:50;8.80;;;2.13;;
9007;SDS011;62813;51.424;6.762;2023-02-28T09:31:18;6.53;;;1.93;;
9007;SDS011;62813;51.424;6.762;2023-02-28T09:33:49;3.87;;;1.80;;
9007;SDS011;62813;51.424;6.762;2023-02-28T09:36:17;6.07;;;2.33;;
9007;SDS011;62813;51.424;6.762;2023-02-28T09:38:45;4.00;;;1.93;;
9007;SDS011;62813;51.424;6.762;2023-02-28T09:41:15;5.57;;;2.47;;
9007;SDS011;62813;51.424;6.762;2023-02-28T09:43:47;6.87;;;2.10;;
9007;SDS011;62813;51.424;6.762;2023-02-28T09:49:02;4.63;;;2.40;;
9007;SDS011;62813;51.424;6.762;2023-02-28T09:54:21;7.00;;;2.40;;
9007;SDS011;62813;51.424;6.762;2023-02-28T09:56:55;3.13;;;2.10;;
9007;SDS011;62813;51.424;6.762;2023-02-28T10:04:57;3.63;;;2.03;;
9007;SDS011;62813;51.424;6.762;2023-02-28T10:10:55;5.57;;;2.10;;
9007;SDS011;62813;51.424;6.762;2023-02-28T10:13:06;10.60;;;2.53;;
9007;SDS011;62813;51.424;6.762;2023-02-28T10:15:47;3.57;;;2.00;;
9007;SDS011;62813;51.424;6.762;2023-02-28T10:18:21;2.87;;;2.10;;
9007;SDS011;62813;51.424;6.762;2023-02-28T10:20:51;4.77;;;1.80;;
9007;SDS011;62813;51.424;6.762;2023-02-28T10:23:34;3.93;;;1.70;;
9007;SDS011;62813;51.424;6.762;2023-02-28T10:26:11;3.83;;;2.00;;
9007;SDS011;62813;51.424;6.762;2023-02-28T10:28:39;5.33;;;2.10;;
9007;SDS011;62813;51.424;6.762;2023-02-28T10:31:08;5.33;;;1.97;;
9007;SDS011;62813;51.424;6.762;2023-02-28T10:33:42;5.40;;;2.20;;
9007;SDS011;62813;51.424;6.762;2023-02-28T10:36:17;2.97;;;1.63;;
9007;SDS011;62813;51.424;6.762;2023-02-28T10:38:45;2.40;;;1.60;;
9007;SDS011;62813;51.424;6.762;2023-02-28T10:41:17;2.53;;;1.90;;
9007;SDS011;62813;51.424;6.762;2023-02-28T10:44:11;2.80;;;2.10;;
9007;SDS011;62813;51.424;6.762;2023-02-28T10:46:49;13.40;;;1.97;;
9007;SDS011;62813;51.424;6.762;2023-02-28T10:49:17;3.33;;;1.60;;
9007;SDS011;62813;51.424;6.762;2023-02-28T10:51:47;3.23;;;1.80;;
9007;SDS011;62813;51.424;6.762;2023-02-28T10:54:23;5.40;;;1.63;;
9007;SDS011;62813;51.424;6.762;2023-02-28T10:59:41;5.00;;;1.90;;
9007;SDS011;62813;51.424;6.762;2023-02-28T11:05:02;4.43;;;1.80;;
9007;SDS011;62813;51.424;6.762;2023-02-28T11:07:59;6.20;;;2.00;;
9007;SDS011;62813;51.424;6.762;2023-02-28T11:10:31;2.20;;;1.70;;
9007;SDS011;62813;51.424;6.762;2023-02-28T11:13:01;2.13;;;1.50;;
9007;SDS011;62813;51.424;6.762;2023-02-28T11:15:32;2.77;;;1.60;;
9007;SDS011;62813;51.424;6.762;2023-02-28T11:20:29;2.73;;;1.60;;
9007;SDS011;62813;51.424;6.762;2023-02-28T11:22:58;3.40;;;1.80;;
9007;SDS011;62813;51.424;6.762;2023-02-28T11:25:35;3.30;;;1.77;;
9007;SDS011;62813;51.424;6.762;2023-02-28T11:28:09;2.00;;;1.77;;
9007;SDS011;62813;51.424;6.762;2023-02-28T11:36:19;2.63;;;1.70;;
9007;SDS011;62813;51.424;6.762;2023-02-28T11:38:56;2.87;;;1.70;;
9007;SDS011;62813;51.424;6.762;2023-02-28T11:44:29;3.00;;;1.93;;
9007;SDS011;62813;51.424;6.762;2023-02-28T11:47:54;3.87;;;1.80;;
9007;SDS011;62813;51.424;6.762;2023-02-28T11:52:50;4.87;;;1.80;;
9007;SDS011;62813;51.424;6.762;2023-02-28T11:55:24;2.60;;;1.70;;
9007;SDS011;62813;51.424;6.762;2023-02-28T12:00:58;3.13;;;2.20;;
9007;SDS011;62813;51.424;6.762;2023-02-28T12:06:13;2.80;;;1.77;;
9007;SDS011;62813;51.424;6.762;2023-02-28T12:26:26;6.83;;;2.17;;
9007;SDS011;62813;51.424;6.762;2023-02-28T12:28:47;3.57;;;1.73;;
9007;SDS011;62813;51.424;6.762;2023-02-28T12:31:18;3.23;;;1.90;;
9007;SDS011;62813;51.424;6.762;2023-02-28T12:34:11;2.00;;;1.77;;
9007;SDS011;62813;51.424;6.762;2023-02-28T12:36:38;5.47;;;1.90;;
9007;SDS011;62813;51.424;6.762;2023-02-28T12:39:18;2.63;;;1.87;;
9007;SDS011;62813;51.424;6.762;2023-02-28T12:42:03;3.33;;;2.13;;
9007;SDS011;62813;51.424;6.762;2023-02-28T12:47:08;5.27;;;1.90;;
9007;SDS011;62813;51.424;6.762;2023-02-28T12:49:44;2.27;;;1.70;;
9007;SDS011;62813;51.424;6.762;2023-02-28T12:52:16;6.83;;;1.80;;
9007;SDS011;62813;51.424;6.762;2023-02-28T12:57:31;3.23;;;1.80;;
9007;SDS011;62813;51.424;6.762;2023-02-28T13:00:03;3.07;;;1.87;;
9007;SDS011;62813;51.424;6.762;2023-02-28T13:11:24;2.70;;;1.90;;
9007;SDS011;62813;51.424;6.762;2023-02-28T13:13:58;2.33;;;2.00;;
9007;SDS011;62813;51.424;6.762;2023-02-28T13:16:27;2.20;;;2.00;;
9007;SDS011;62813;51.424;6.762;2023-02-28T13:19:07;2.27;;;1.93;;
9007;SDS011;62813;51.424;6.762;2023-02-28T13:21:41;4.37;;;2.40;;
9007;SDS011;62813;51.424;6.762;2023-02-28T13:24:11;5.23;;;1.80;;
9007;SDS011;62813;51.424;6.762;2023-02-28T13:34:41;2.20;;;2.00;;
9007;SDS011;62813;51.424;6.762;2023-02-28T13:37:32;3.57;;;2.00;;
9007;SDS011;62813;51.424;6.762;2023-02-28T13:42:46;5.80;;;2.10;;
9007;SDS011;62813;51.424;6.762;2023-02-28T13:45:23;2.47;;;2.10;;
9007;SDS011;62813;51.424;6.762;2023-02-28T13:47:58;3.00;;;2.20;;
9007;SDS011;62813;51.424;6.762;2023-02-28T13:50:37;3.20;;;1.97;;
9007;SDS011;62813;51.424;6.762;2023-02-28T14:01:09;2.90;;;2.60;;
9007;SDS011;62813;51.424;6.762;2023-02-28T14:06:33;3.20;;;2.40;;
9007;SDS011;62813;51.424;6.762;2023-02-28T14:11:38;2.60;;;2.40;;
9007;SDS011;62813;51.424;6.762;2023-02-28T14:14:07;4.00;;;2.53;;
9007;SDS011;62813;51.424;6.762;2023-02-28T14:16:37;4.90;;;2.67;;
9007;SDS011;62813;51.424;6.762;2023-02-28T14:19:15;3.10;;;2.80;;
9007;SDS011;62813;51.424;6.762;2023-02-28T14:22:02;3.50;;;2.60;;
9007;SDS011;62813;51.424;6.762;2023-02-28T14:35:43;7.57;;;2.70;;
9007;SDS011;62813;51.424;6.762;2023-02-28T14:38:31;5.27;;;2.50;;
9007;SDS011;62813;51.424;6.762;2023-02-28T14:41:03;3.07;;;2.57;;
9007;SDS011;62813;51.424;6.762;2023-02-28T14:43:33;3.27;;;2.97;;
9007;SDS011;62813;51.424;6.762;2023-02-28T14:46:00;4.37;;;3.07;;
9007;SDS011;62813;51.424;6.762;2023-02-28T14:48:29;4.17;;;2.80;;
9007;SDS011;62813;51.424;6.762;2023-02-28T14:50:57;3.50;;;2.70;;
9007;SDS011;62813;51.424;6.762;2023-02-28T14:53:27;4.93;;;2.73;;
9007;SDS011;62813;51.424;6.762;2023-02-28T14:55:57;3.40;;;2.60;;
9007;SDS011;62813;51.424;6.762;2023-02-28T14:58:25;4.23;;;2.47;;
9007;SDS011;62813;51.424;6.762;2023-02-28T15:00:55;5.07;;;2.63;;
9007;SDS011;62813;51.424;6.762;2023-02-28T15:03:31;4.57;;;2.73;;
9007;SDS011;62813;51.424;6.762;2023-02-28T15:06:02;5.67;;;3.00;;
9007;SDS011;62813;51.424;6.762;2023-02-28T15:08:31;3.43;;;2.63;;
9007;SDS011;62813;51.424;6.762;2023-02-28T15:11:03;3.97;;;2.50;;
9007;SDS011;62813;51.424;6.762;2023-02-28T15:16:14;5.73;;;3.10;;
9007;SDS011;62813;51.424;6.762;2023-02-28T15:18:49;5.23;;;2.70;;
9007;SDS011;62813;51.424;6.762;2023-02-28T15:21:22;3.40;;;2.60;;
9007;SDS011;62813;51.424;6.762;2023-02-28T15:23:55;5.10;;;3.07;;
9007;SDS011;62813;51.424;6.762;2023-02-28T15:26:27;3.67;;;2.70;;
9007;SDS011;62813;51.424;6.762;2023-02-28T15:29:01;4.77;;;2.57;;
9007;SDS011;62813;51.424;6.762;2023-02-28T15:31:34;3.57;;;2.70;;
9007;SDS011;62813;51.424;6.762;2023-02-28T15:34:26;3.63;;;2.50;;
9007;SDS011;62813;51.424;6.762;2023-02-28T15:42:57;7.37;;;3.20;;
9007;SDS011;62813;51.424;6.762;2023-02-28T15:45:40;3.70;;;2.97;;
9007;SDS011;62813;51.424;6.762;2023-02-28T15:50:48;3.20;;;2.53;;
9007;SDS011;62813;51.424;6.762;2023-02-28T15:53:19;4.77;;;2.90;;
9007;SDS011;62813;51.424;6.762;2023-02-28T15:55:53;3.57;;;2.53;;
9007;SDS011;62813;51.424;6.762;2023-02-28T15:58:23;4.67;;;2.87;;
9007;SDS011;62813;51.424;6.762;2023-02-28T16:03:46;3.33;;;2.40;;
9007;SDS011;62813;51.424;6.762;2023-02-28T16:09:09;3.47;;;2.57;;
9007;SDS011;62813;51.424;6.762;2023-02-28T16:11:39;7.87;;;3.20;;
9007;SDS011;62813;51.424;6.762;2023-02-28T16:14:26;4.97;;;2.40;;
9007;SDS011;62813;51.424;6.762;2023-02-28T16:16:57;5.80;;;2.97;;
9007;SDS011;62813;51.424;6.762;2023-02-28T16:19:30;8.90;;;3.03;;
9007;SDS011;62813;51.424;6.762;2023-02-28T16:21:59;5.80;;;3.13;;
9007;SDS011;62813;51.424;6.762;2023-02-28T16:24:26;5.70;;;3.17;;
9007;SDS011;62813;51.424;6.762;2023-02-28T16:26:53;3.67;;;2.70;;
9007;SDS011;62813;51.424;6.762;2023-02-28T16:29:26;3.67;;;3.13;;
9007;SDS011;62813;51.424;6.762;2023-02-28T16:31:55;4.40;;;2.70;;
9007;SDS011;62813;51.424;6.762;2023-02-28T16:34:23;3.37;;;2.70;;
9007;SDS011;62813;51.424;6.762;2023-02-28T16:36:50;4.47;;;3.13;;
9007;SDS011;62813;51.424;6.762;2023-02-28T16:39:17;4.20;;;3.13;;
9007;SDS011;62813;51.424;6.762;2023-02-28T16:41:46;5.20;;;2.50;;
9007;SDS011;62813;51.424;6.762;2023-02-28T16:44:27;3.80;;;2.67;;
9007;SDS011;62813;51.424;6.762;2023-02-28T16:46:55;5.37;;;3.37;;
9007;SDS011;62813;51.424;6.762;2023-02-28T16:49:22;4.80;;;3.10;;
9007;SDS011;62813;51.424;6.762;2023-02-28T16:51:49;3.97;;;3.20;;
9007;SDS011;62813;51.424;6.762;2023-02-28T16:54:15;5.60;;;3.20;;
9007;SDS011;62813;51.424;6.762;2023-02-28T16:56:43;4.27;;;2.80;;
9007;SDS011;62813;51.424;6.762;2023-02-28T16:59:12;3.67;;;2.77;;
9007;SDS011;62813;51.424;6.762;2023-02-28T17:01:41;3.23;;;2.87;;
9007;SDS011;62813;51.424;6.762;2023-02-28T17:04:08;4.20;;;3.13;;
9007;SDS011;62813;51.424;6.762;2023-02-28T17:06:36;4.27;;;2.90;;
9007;SDS011;62813;51.424;6.762;2023-02-28T17:09:04;5.80;;;2.90;;
9007;SDS011;62813;51.424;6.762;2023-02-28T17:11:30;4.43;;;2.73;;
9007;SDS011;62813;51.424;6.762;2023-02-28T17:13:57;3.77;;;2.70;;
9007;SDS011;62813;51.424;6.762;2023-02-28T17:16:27;6.80;;;3.13;;
9007;SDS011;62813;51.424;6.762;2023-02-28T17:18:57;4.90;;;2.77;;
9007;SDS011;62813;51.424;6.762;2023-02-28T17:21:26;3.93;;;3.10;;
9007;SDS011;62813;51.424;6.762;2023-02-28T17:23:53;4.77;;;2.80;;
9007;SDS011;62813;51.424;6.762;2023-02-28T17:26:20;2.97;;;2.57;;
9007;SDS011;62813;51.424;6.762;2023-02-28T17:28:48;5.73;;;3.07;;
9007;SDS011;62813;51.424;6.762;2023-02-28T17:31:15;3.77;;;3.10;;
9007;SDS011;62813;51.424;6.762;2023-02-28T17:33:42;5.63;;;3.30;;
9007;SDS011;62813;51.424;6.762;2023-02-28T17:36:10;3.90;;;3.00;;
9007;SDS011;62813;51.424;6.762;2023-02-28T17:38:40;4.13;;;2.43;;
9007;SDS011;62813;51.424;6.762;2023-02-28T17:41:09;4.30;;;3.40;;
9007;SDS011;62813;51.424;6.762;2023-02-28T17:43:37;4.60;;;3.40;;
9007;SDS011;62813;51.424;6.762;2023-02-28T17:46:03;4.27;;;3.37;;
9007;SDS011;62813;51.424;6.762;2023-02-28T17:48:33;5.70;;;3.83;;
9007;SDS011;62813;51.424;6.762;2023-02-28T17:51:01;7.20;;;3.87;;
9007;SDS011;62813;51.424;6.762;2023-02-28T17:53:28;6.50;;;4.07;;
9007;SDS011;62813;51.424;6.762;2023-02-28T17:55:55;5.40;;;3.33;;